Terminal Aerodrome Forecast
Issued by NWS

Home | Current Version | Previous Version | Graphics & Text | Print | Product List | Glossary On
Versions: 1 2 3 4 5 6 7 8 9 10 11 12 13 14 15 16 17 18 19 20 21 22 23 24 25 26 27 28 29 30 31 32 33 34 35 36 37 38 39 40 41 42 43 44 45 46 47 48 49 50
000
FTUS43 KLOT 030900 AAA
TAFGYY
TAF AMD
KGYY 030907Z 0309/0406 15008KT P6SM VCSH BKN045 OVC060
     FM031000 15010KT P6SM -SN OVC045
      TEMPO 0310/0311 3SM -SNPL OVC030
     FM031100 14011KT 1 1/2SM -SN BR BKN010 OVC030
     FM031300 15012KT 1SM -PLSN BR OVC007
     FM031500 18015G21KT 2SM -FZRAPL BR OVC004
     FM031800 21015G22KT 5SM -DZ BR OVC006
     FM032200 25014G23KT P6SM OVC015
     FM040300 28014G21KT P6SM OVC025=

USA.gov is the U.S. government's official web portal to all federal, state and local government web resources and services.